AirNav   Air Wisconsin pilot careers
 
 872 users online  

0J0 Abbeville Municipal Airport
Abbeville, Alabama, USA

GOING TO ABBEVILLE?


FAA INFORMATION EFFECTIVE 15 AUGUST 2019

Location

FAA Identifier: 0J0
Lat/Long: 31-36-00.8000N 085-14-17.9100W
31-36.013333N 085-14.298500W
31.6002222,-85.2383083
(estimated)
Elevation: 463.1 ft. / 141.2 m (surveyed)
Variation: 01W (1985)
From city: 3 miles N of ABBEVILLE, AL
Time zone: UTC -5 (UTC -6 during Standard Time)
Zip code: 36310

Airport Operations

Airport use: Open to the public
Activation date: 08/1959
Control tower: no
ARTCC: JACKSONVILLE CENTER
FSS: ANNISTON FLIGHT SERVICE STATION
NOTAMs facility: ANB (NOTAM-D service available)
Attendance: UNATNDD
Wind indicator: lighted
Segmented circle: no
Lights: ACTVT MIRL RY 18/36 - CTAF.
Beacon: white-green (lighted land airport)
Operates sunset to sunrise.

Airport Communications

CTAF/UNICOM: 122.8
WX ASOS at DHN (20 nm SW): PHONE 334-983-5999
  • UNICOM IS LCTD AT POLICE STATION.

Nearby radio navigation aids

VOR radial/distance  VOR name  Freq  Var
RRSr026/21.4WIREGRASS VORTAC111.6002E
EUFr193/21.7EUFAULA VORTAC109.2002E
HEYr060/(25.2)HANCHEY VOR110.6003W
OZRr054/31.9CAIRNS VOR/DME111.2003W
EDNr065/(38.6)ENTERPRISE VOR116.6003W

 
NDB name  Hdg/Dist  Freq  Var  ID
BLAAK295/23.134403WIWJ .. .-- .---
HANCHEY061/25.222103WHYE .... -.-- .
LOWE064/29.526903WLOR .-.. --- .-.

Airport Services

Parking: tiedowns
Airframe service: NONE
Powerplant service: NONE

Runway Information

Runway 17/35

Dimensions: 2900 x 80 ft. / 884 x 24 m
Surface: asphalt/concrete/aggregate friction seal coat, in fair condition
Runway edge lights: medium intensity
RUNWAY 17  RUNWAY 35
Latitude: 31-36.249833N31-35.776000N
Longitude: 085-14.336667W085-14.260333W
Elevation: 463.1 ft.462.8 ft.
Traffic pattern: leftleft
Runway heading: 173 magnetic, 172 true353 magnetic, 352 true
Displaced threshold: 300 ft.no
Markings: basic, in fair conditionbasic, in fair condition
Touchdown point: yes, no lightsyes, no lights
Obstructions: 36 ft. pline, 1245 ft. from runway, 36 ft. left of centerline, 29:1 slope to clear
RY 17 APCH SLOPE 50:1 TO DSPLCD THLD.
28 ft. tree, 1390 ft. from runway, 70 ft. left of centerline, 42:1 slope to clear

Airport Ownership and Management from official FAA records

Ownership: Publicly-owned
Owner: CITY OF ABBEVILLE
PO BOX 427
ABBEVILLE, AL 36310
Phone 334-585-6444
Manager: TINA BARNES
PO BOX 427
ABBEVILLE, AL 36310
Phone 334-585-6444

Airport Operational Statistics

Aircraft based on the field: 1
Single engine airplanes: 1
    
Aircraft operations: avg 31/week *
75% military
25% transient general aviation
* for 12-month period ending 17 January 2020

Additional Remarks

FOR CD CTC JACKSONVILLE ARTCC AT 904-845-1592.

Instrument Procedures

There are no published instrument procedures at 0J0.

Some nearby airports with instrument procedures:

0J6 - Headland Municipal Airport (15 nm S)
KDHN - Dothan Regional Airport (20 nm SW)
11A - Clayton Municipal Airport (21 nm NW)
KBIJ - Early County Airport (21 nm SE)
KEUF - Weedon Field Airport (22 nm N)
 
Loc | Ops | Rwys | IFR | FBO | Links
Com | Nav | Svcs | Stats | Notes
Area around 0J0 (Abbeville Municipal Airport)
 
Road maps at: MapQuest Bing Google
 
Aerial photo
WARNING: Photo may not be current or correct
Aerial photo of 0J0 (Abbeville Municipal Airport)
Do you have a better or more recent aerial photo of Abbeville Municipal Airport that you would like to share? If so, please send us your photo.

 
Sectional chart

 
Airport distance calculator
Flying to Abbeville Municipal Airport? Find the distance to fly.

From to 0J0

Sunrise and sunset
Times for 25-Aug-2019
 Local
(UTC-5)
 Zulu
(UTC)
Morning civil twilight05:4810:48
Sunrise06:1311:13
Sunset19:1300:13
Evening civil twilight19:3800:38

Current date and time
Zulu (UTC)  26-Aug-2019 02:35:03
Local (UTC-5)  25-Aug-2019 21:35:03
 
METAR
KDHN 
20nm SW 
260153Z AUTO 08005KT 10SM FEW037 23/22 A3004 RMK AO2 LTG DSNT E RAE0058 SLP166 P0005 T02330217 $
KBIJ 
21nm SE 
260215Z AUTO 21003KT 7SM +TSRA BKN013 OVC018 22/20 A3005 RMK AO2 LTG DSNT SE THRU SW
KHEY 
26nm SW 
260158Z AUTO 09006KT 10SM SCT037 BKN047 BKN100 23/23 A2999 RMK AO2 LTG DSNT SW SLP155 T02260226
KLOR 
30nm SW 
260158Z AUTO 07003KT 10SM BKN040 23/22 A2999 RMK AO2 LTG DSNT SW SLP137 T02250223
KOZR 
31nm SW 
260156Z AUTO 06006KT 10SM SCT042 23/22 A2999 RMK AO2 SLP155 T02300223
KSXS 
34nm SW 
260158Z AUTO 11005KT 10SM FEW050 23/22 A2999 RMK AO2 LTG DSNT S SLP154 T02260219
KEDN 
38nm SW 
260215Z AUTO 10005KT 10SM SCT080 23/23 A2999 RMK AO2 LTG DSNT N T02270227
K17J 
40nm SE 
260215Z AUTO 08007KT 7SM VCTSRA BR SCT070 SCT090 BKN120 23/23 A3001 RMK AO2 LTG DSNT N AND SW P0003 T02310228
TAF
KDHN 
20nm SW 
252139Z 2522/2618 09007KT P6SM VCTS BKN035CB TEMPO 2522/2524 VRB12G20KT 3SM TSRA BKN040CB FM260200 10003KT P6SM SCT035 FM261000 10007KT P6SM BKN005
NOTAMs
Click for the latest NOTAMs
NOTAMs are issued by the DoD/FAA and will open in a separate window not controlled by AirNav.

 

 
 

Aviation Businesses, Services, and Facilities

  
 Business Name 
 
 Contact 
 
 Services / Description 
 
Distance
 
Comments
  
Abbeville Municipal Airport no information available

If you are affiliated with Abbeville Municipal Airport and would like to show here your services, contact info, web link, logo, and more, click here
on airport  
   write
 

Would you like to see your business listed on this page?

 If your business provides an interesting product or service to pilots, flight crews, aircraft, or users of the Abbeville Municipal Airport, you should consider listing it here.  To start the listing process, click on the button below
 
Add a business
 

Other Pages about Abbeville Municipal Airport

Update a link
 
Copyright © AirNav, LLC. All rights reserved. Privacy Policy  Contact